sensor_id;sensor_type;location;lat;lon;timestamp;temperature;humidity
8332;DHT22;4203;48.144;14.118;2023-09-18T00:00:00;15.20;99.90
8332;DHT22;4203;48.144;14.118;2023-09-18T00:02:27;15.20;99.90
8332;DHT22;4203;48.144;14.118;2023-09-18T00:04:57;15.20;99.90
8332;DHT22;4203;48.144;14.118;2023-09-18T00:07:24;15.20;99.90
8332;DHT22;4203;48.144;14.118;2023-09-18T00:09:51;15.00;99.90
8332;DHT22;4203;48.144;14.118;2023-09-18T00:12:18;15.00;99.90
8332;DHT22;4203;48.144;14.118;2023-09-18T00:14:48;14.90;99.90
8332;DHT22;4203;48.144;14.118;2023-09-18T00:17:16;14.90;99.90
8332;DHT22;4203;48.144;14.118;2023-09-18T00:19:44;14.80;99.90
8332;DHT22;4203;48.144;14.118;2023-09-18T00:22:12;14.80;99.90
8332;DHT22;4203;48.144;14.118;2023-09-18T00:24:39;14.80;99.90
8332;DHT22;4203;48.144;14.118;2023-09-18T00:27:06;14.70;99.90
8332;DHT22;4203;48.144;14.118;2023-09-18T00:29:33;14.70;99.90
8332;DHT22;4203;48.144;14.118;2023-09-18T00:32:00;14.70;99.90
8332;DHT22;4203;48.144;14.118;2023-09-18T00:34:29;14.60;99.90
8332;DHT22;4203;48.144;14.118;2023-09-18T00:36:57;14.70;99.90
8332;DHT22;4203;48.144;14.118;2023-09-18T00:39:25;14.70;99.90
8332;DHT22;4203;48.144;14.118;2023-09-18T00:41:52;14.60;99.90
8332;DHT22;4203;48.144;14.118;2023-09-18T00:44:20;14.60;99.90
8332;DHT22;4203;48.144;14.118;2023-09-18T00:46:47;14.60;99.90
8332;DHT22;4203;48.144;14.118;2023-09-18T00:49:15;14.50;99.90
8332;DHT22;4203;48.144;14.118;2023-09-18T00:51:44;14.50;99.90
8332;DHT22;4203;48.144;14.118;2023-09-18T00:54:15;14.50;99.90
8332;DHT22;4203;48.144;14.118;2023-09-18T00:56:44;14.50;99.90
8332;DHT22;4203;48.144;14.118;2023-09-18T00:59:12;14.50;99.90
8332;DHT22;4203;48.144;14.118;2023-09-18T01:01:40;14.50;99.90
8332;DHT22;4203;48.144;14.118;2023-09-18T01:04:09;14.50;99.90
8332;DHT22;4203;48.144;14.118;2023-09-18T01:06:36;14.40;99.90
8332;DHT22;4203;48.144;14.118;2023-09-18T01:09:06;14.40;99.90
8332;DHT22;4203;48.144;14.118;2023-09-18T01:11:47;14.40;99.90
8332;DHT22;4203;48.144;14.118;2023-09-18T01:14:20;14.40;99.90
8332;DHT22;4203;48.144;14.118;2023-09-18T01:16:55;14.50;99.90
8332;DHT22;4203;48.144;14.118;2023-09-18T01:19:38;14.60;99.90
8332;DHT22;4203;48.144;14.118;2023-09-18T01:22:06;14.50;99.90
8332;DHT22;4203;48.144;14.118;2023-09-18T01:24:35;14.50;99.90
8332;DHT22;4203;48.144;14.118;2023-09-18T01:27:04;14.50;99.90
8332;DHT22;4203;48.144;14.118;2023-09-18T01:29:31;14.50;99.90
8332;DHT22;4203;48.144;14.118;2023-09-18T01:31:58;14.40;99.90
8332;DHT22;4203;48.144;14.118;2023-09-18T01:34:28;14.30;99.90
8332;DHT22;4203;48.144;14.118;2023-09-18T01:36:59;14.40;99.90
8332;DHT22;4203;48.144;14.118;2023-09-18T01:39:29;14.30;99.90
8332;DHT22;4203;48.144;14.118;2023-09-18T01:42:00;14.30;99.90
8332;DHT22;4203;48.144;14.118;2023-09-18T01:44:28;14.30;99.90
8332;DHT22;4203;48.144;14.118;2023-09-18T01:46:58;14.30;99.90
8332;DHT22;4203;48.144;14.118;2023-09-18T01:49:29;14.30;99.90
8332;DHT22;4203;48.144;14.118;2023-09-18T01:51:57;14.20;99.90
8332;DHT22;4203;48.144;14.118;2023-09-18T01:54:24;14.20;99.90
8332;DHT22;4203;48.144;14.118;2023-09-18T01:56:52;14.20;99.90
8332;DHT22;4203;48.144;14.118;2023-09-18T01:59:21;14.20;99.90
8332;DHT22;4203;48.144;14.118;2023-09-18T02:01:49;14.10;99.90
8332;DHT22;4203;48.144;14.118;2023-09-18T02:04:16;14.10;99.90
8332;DHT22;4203;48.144;14.118;2023-09-18T02:06:44;14.00;99.90
8332;DHT22;4203;48.144;14.118;2023-09-18T02:09:11;14.00;99.90
8332;DHT22;4203;48.144;14.118;2023-09-18T02:11:39;14.00;99.90
8332;DHT22;4203;48.144;14.118;2023-09-18T02:14:07;14.00;99.90
8332;DHT22;4203;48.144;14.118;2023-09-18T02:16:39;14.00;99.90
8332;DHT22;4203;48.144;14.118;2023-09-18T02:19:08;14.00;99.90
8332;DHT22;4203;48.144;14.118;2023-09-18T02:21:35;14.10;99.90
8332;DHT22;4203;48.144;14.118;2023-09-18T02:24:03;14.10;99.90
8332;DHT22;4203;48.144;14.118;2023-09-18T02:26:31;14.10;99.90
8332;DHT22;4203;48.144;14.118;2023-09-18T02:28:59;14.10;99.90
8332;DHT22;4203;48.144;14.118;2023-09-18T02:31:27;14.10;99.90
8332;DHT22;4203;48.144;14.118;2023-09-18T02:33:56;14.10;99.90
8332;DHT22;4203;48.144;14.118;2023-09-18T02:36:23;14.10;99.90
8332;DHT22;4203;48.144;14.118;2023-09-18T02:38:51;14.00;99.90
8332;DHT22;4203;48.144;14.118;2023-09-18T02:41:18;14.00;99.90
8332;DHT22;4203;48.144;14.118;2023-09-18T02:43:45;13.90;99.90
8332;DHT22;4203;48.144;14.118;2023-09-18T02:46:12;13.90;99.90
8332;DHT22;4203;48.144;14.118;2023-09-18T02:48:39;13.90;99.90
8332;DHT22;4203;48.144;14.118;2023-09-18T02:51:08;13.90;99.90
8332;DHT22;4203;48.144;14.118;2023-09-18T02:53:35;13.80;99.90
8332;DHT22;4203;48.144;14.118;2023-09-18T02:56:03;13.80;99.90
8332;DHT22;4203;48.144;14.118;2023-09-18T02:58:30;13.80;99.90
8332;DHT22;4203;48.144;14.118;2023-09-18T03:00:57;13.80;99.90
8332;DHT22;4203;48.144;14.118;2023-09-18T03:03:25;13.80;99.90
8332;DHT22;4203;48.144;14.118;2023-09-18T03:05:52;13.70;99.90
8332;DHT22;4203;48.144;14.118;2023-09-18T03:08:21;13.70;99.90
8332;DHT22;4203;48.144;14.118;2023-09-18T03:10:48;13.60;99.90
8332;DHT22;4203;48.144;14.118;2023-09-18T03:13:15;13.60;99.90
8332;DHT22;4203;48.144;14.118;2023-09-18T03:15:45;13.60;99.90
8332;DHT22;4203;48.144;14.118;2023-09-18T03:18:13;13.60;99.90
8332;DHT22;4203;48.144;14.118;2023-09-18T03:20:42;13.60;99.90
8332;DHT22;4203;48.144;14.118;2023-09-18T03:23:09;13.60;99.90
8332;DHT22;4203;48.144;14.118;2023-09-18T03:25:38;13.60;99.90
8332;DHT22;4203;48.144;14.118;2023-09-18T03:28:05;13.60;99.90
8332;DHT22;4203;48.144;14.118;2023-09-18T03:30:32;13.60;99.90
8332;DHT22;4203;48.144;14.118;2023-09-18T03:32:59;13.50;99.90
8332;DHT22;4203;48.144;14.118;2023-09-18T03:35:28;13.50;99.90
8332;DHT22;4203;48.144;14.118;2023-09-18T03:37:56;13.40;99.90
8332;DHT22;4203;48.144;14.118;2023-09-18T03:40:23;13.40;99.90
8332;DHT22;4203;48.144;14.118;2023-09-18T03:42:51;13.40;99.90
8332;DHT22;4203;48.144;14.118;2023-09-18T03:45:21;13.30;99.90
8332;DHT22;4203;48.144;14.118;2023-09-18T03:47:48;13.30;99.90
8332;DHT22;4203;48.144;14.118;2023-09-18T03:50:15;13.20;99.90
8332;DHT22;4203;48.144;14.118;2023-09-18T03:52:43;13.20;99.90
8332;DHT22;4203;48.144;14.118;2023-09-18T03:55:10;13.20;99.90
8332;DHT22;4203;48.144;14.118;2023-09-18T03:57:42;13.20;99.90
8332;DHT22;4203;48.144;14.118;2023-09-18T04:00:12;13.20;99.90
8332;DHT22;4203;48.144;14.118;2023-09-18T04:02:39;13.10;99.90
8332;DHT22;4203;48.144;14.118;2023-09-18T04:05:07;13.10;99.90
8332;DHT22;4203;48.144;14.118;2023-09-18T04:07:35;13.10;99.90
8332;DHT22;4203;48.144;14.118;2023-09-18T04:10:02;13.10;99.90
8332;DHT22;4203;48.144;14.118;2023-09-18T04:12:31;13.00;99.90
8332;DHT22;4203;48.144;14.118;2023-09-18T04:14:59;13.00;99.90
8332;DHT22;4203;48.144;14.118;2023-09-18T04:17:27;13.10;99.90
8332;DHT22;4203;48.144;14.118;2023-09-18T04:19:54;13.00;99.90
8332;DHT22;4203;48.144;14.118;2023-09-18T04:22:22;13.00;99.90
8332;DHT22;4203;48.144;14.118;2023-09-18T04:24:49;13.00;99.90
8332;DHT22;4203;48.144;14.118;2023-09-18T04:27:16;13.00;99.90
8332;DHT22;4203;48.144;14.118;2023-09-18T04:29:43;12.90;99.90
8332;DHT22;4203;48.144;14.118;2023-09-18T04:32:10;12.90;99.90
8332;DHT22;4203;48.144;14.118;2023-09-18T04:34:39;12.90;99.90
8332;DHT22;4203;48.144;14.118;2023-09-18T04:37:06;12.80;99.90
8332;DHT22;4203;48.144;14.118;2023-09-18T04:39:33;12.70;99.90
8332;DHT22;4203;48.144;14.118;2023-09-18T04:42:03;12.70;99.90
8332;DHT22;4203;48.144;14.118;2023-09-18T04:44:31;12.70;99.90
8332;DHT22;4203;48.144;14.118;2023-09-18T04:46:58;12.80;99.90
8332;DHT22;4203;48.144;14.118;2023-09-18T04:49:25;12.80;99.90
8332;DHT22;4203;48.144;14.118;2023-09-18T04:51:55;12.70;99.90
8332;DHT22;4203;48.144;14.118;2023-09-18T04:54:22;12.70;99.90
8332;DHT22;4203;48.144;14.118;2023-09-18T04:56:49;12.70;99.90
8332;DHT22;4203;48.144;14.118;2023-09-18T04:59:16;12.70;99.90
8332;DHT22;4203;48.144;14.118;2023-09-18T05:01:43;12.70;99.90
8332;DHT22;4203;48.144;14.118;2023-09-18T05:04:10;12.80;99.90
8332;DHT22;4203;48.144;14.118;2023-09-18T05:06:38;12.80;99.90
8332;DHT22;4203;48.144;14.118;2023-09-18T05:09:09;12.80;99.90
8332;DHT22;4203;48.144;14.118;2023-09-18T05:11:36;12.90;99.90
8332;DHT22;4203;48.144;14.118;2023-09-18T05:14:04;12.80;99.90
8332;DHT22;4203;48.144;14.118;2023-09-18T05:16:31;12.90;99.90
8332;DHT22;4203;48.144;14.118;2023-09-18T05:18:59;13.00;99.90
8332;DHT22;4203;48.144;14.118;2023-09-18T05:21:26;13.00;99.90
8332;DHT22;4203;48.144;14.118;2023-09-18T05:23:53;13.10;99.90
8332;DHT22;4203;48.144;14.118;2023-09-18T05:26:22;13.10;99.90
8332;DHT22;4203;48.144;14.118;2023-09-18T05:28:50;13.20;99.90
8332;DHT22;4203;48.144;14.118;2023-09-18T05:31:19;13.30;99.90
8332;DHT22;4203;48.144;14.118;2023-09-18T05:33:46;13.40;99.90
8332;DHT22;4203;48.144;14.118;2023-09-18T05:36:14;13.50;99.90
8332;DHT22;4203;48.144;14.118;2023-09-18T05:38:41;13.60;99.90
8332;DHT22;4203;48.144;14.118;2023-09-18T05:41:09;13.70;99.90
8332;DHT22;4203;48.144;14.118;2023-09-18T05:43:38;13.90;99.90
8332;DHT22;4203;48.144;14.118;2023-09-18T05:46:05;14.00;99.90
8332;DHT22;4203;48.144;14.118;2023-09-18T05:48:32;14.20;99.90
8332;DHT22;4203;48.144;14.118;2023-09-18T05:50:59;14.40;99.90
8332;DHT22;4203;48.144;14.118;2023-09-18T05:53:26;14.50;99.90
8332;DHT22;4203;48.144;14.118;2023-09-18T05:55:53;14.70;99.90
8332;DHT22;4203;48.144;14.118;2023-09-18T05:58:22;14.80;99.90
8332;DHT22;4203;48.144;14.118;2023-09-18T06:00:52;14.90;99.90
8332;DHT22;4203;48.144;14.118;2023-09-18T06:03:19;15.00;99.90
8332;DHT22;4203;48.144;14.118;2023-09-18T06:05:47;15.00;99.90
8332;DHT22;4203;48.144;14.118;2023-09-18T06:08:15;15.10;99.90
8332;DHT22;4203;48.144;14.118;2023-09-18T06:10:42;15.20;99.90
8332;DHT22;4203;48.144;14.118;2023-09-18T06:13:09;15.30;99.90
8332;DHT22;4203;48.144;14.118;2023-09-18T06:15:37;15.40;99.90
8332;DHT22;4203;48.144;14.118;2023-09-18T06:18:05;15.50;99.90
8332;DHT22;4203;48.144;14.118;2023-09-18T06:20:33;15.60;99.90
8332;DHT22;4203;48.144;14.118;2023-09-18T06:23:00;15.70;99.90
8332;DHT22;4203;48.144;14.118;2023-09-18T06:25:29;15.80;99.90
8332;DHT22;4203;48.144;14.118;2023-09-18T06:27:57;16.00;99.90
8332;DHT22;4203;48.144;14.118;2023-09-18T06:30:26;16.10;99.90
8332;DHT22;4203;48.144;14.118;2023-09-18T06:32:53;16.20;99.90
8332;DHT22;4203;48.144;14.118;2023-09-18T06:35:22;16.40;99.90
8332;DHT22;4203;48.144;14.118;2023-09-18T06:37:49;16.50;99.90
8332;DHT22;4203;48.144;14.118;2023-09-18T06:40:16;16.70;99.90
8332;DHT22;4203;48.144;14.118;2023-09-18T06:42:43;16.80;99.90
8332;DHT22;4203;48.144;14.118;2023-09-18T06:45:11;16.90;99.90
8332;DHT22;4203;48.144;14.118;2023-09-18T06:47:39;17.10;99.90
8332;DHT22;4203;48.144;14.118;2023-09-18T06:50:07;17.20;99.90
8332;DHT22;4203;48.144;14.118;2023-09-18T06:52:36;17.30;99.90
8332;DHT22;4203;48.144;14.118;2023-09-18T06:55:04;17.50;99.90
8332;DHT22;4203;48.144;14.118;2023-09-18T06:57:31;17.60;99.90
8332;DHT22;4203;48.144;14.118;2023-09-18T06:59:59;17.70;99.90
8332;DHT22;4203;48.144;14.118;2023-09-18T07:02:26;17.80;99.90
8332;DHT22;4203;48.144;14.118;2023-09-18T07:04:54;17.90;99.90
8332;DHT22;4203;48.144;14.118;2023-09-18T07:07:21;18.00;99.90
8332;DHT22;4203;48.144;14.118;2023-09-18T07:09:52;18.20;99.90
8332;DHT22;4203;48.144;14.118;2023-09-18T07:12:19;18.40;99.90
8332;DHT22;4203;48.144;14.118;2023-09-18T07:14:46;18.60;99.90
8332;DHT22;4203;48.144;14.118;2023-09-18T07:17:13;18.80;99.90
8332;DHT22;4203;48.144;14.118;2023-09-18T07:19:41;19.00;99.90
8332;DHT22;4203;48.144;14.118;2023-09-18T07:22:08;19.30;99.90
8332;DHT22;4203;48.144;14.118;2023-09-18T07:24:35;19.60;99.90
8332;DHT22;4203;48.144;14.118;2023-09-18T07:27:07;19.80;99.90
8332;DHT22;4203;48.144;14.118;2023-09-18T07:29:35;20.10;99.90
8332;DHT22;4203;48.144;14.118;2023-09-18T07:32:02;20.30;99.90
8332;DHT22;4203;48.144;14.118;2023-09-18T07:34:29;20.70;99.90
8332;DHT22;4203;48.144;14.118;2023-09-18T07:36:56;20.90;99.90
8332;DHT22;4203;48.144;14.118;2023-09-18T07:39:24;21.10;99.90
8332;DHT22;4203;48.144;14.118;2023-09-18T07:41:51;21.30;99.90
8332;DHT22;4203;48.144;14.118;2023-09-18T07:44:21;21.40;99.90
8332;DHT22;4203;48.144;14.118;2023-09-18T07:46:49;21.60;99.90
8332;DHT22;4203;48.144;14.118;2023-09-18T07:49:16;21.70;99.90
8332;DHT22;4203;48.144;14.118;2023-09-18T07:51:44;21.70;99.90
8332;DHT22;4203;48.144;14.118;2023-09-18T07:54:14;21.90;99.90
8332;DHT22;4203;48.144;14.118;2023-09-18T07:56:42;21.90;99.90
8332;DHT22;4203;48.144;14.118;2023-09-18T07:59:09;21.70;99.90
8332;DHT22;4203;48.144;14.118;2023-09-18T08:01:38;21.60;99.90
8332;DHT22;4203;48.144;14.118;2023-09-18T08:04:05;21.40;99.90
8332;DHT22;4203;48.144;14.118;2023-09-18T08:06:32;21.40;99.90
8332;DHT22;4203;48.144;14.118;2023-09-18T08:09:00;21.70;99.90
8332;DHT22;4203;48.144;14.118;2023-09-18T08:11:27;22.10;99.90
8332;DHT22;4203;48.144;14.118;2023-09-18T08:13:54;22.50;99.90
8332;DHT22;4203;48.144;14.118;2023-09-18T08:16:21;22.90;99.90
8332;DHT22;4203;48.144;14.118;2023-09-18T08:18:50;23.40;99.90
8332;DHT22;4203;48.144;14.118;2023-09-18T08:21:18;23.80;99.90
8332;DHT22;4203;48.144;14.118;2023-09-18T08:23:45;24.10;99.90
8332;DHT22;4203;48.144;14.118;2023-09-18T08:26:12;24.30;99.90
8332;DHT22;4203;48.144;14.118;2023-09-18T08:28:39;24.50;99.90
8332;DHT22;4203;48.144;14.118;2023-09-18T08:31:09;24.60;99.90
8332;DHT22;4203;48.144;14.118;2023-09-18T08:33:36;24.80;99.90
8332;DHT22;4203;48.144;14.118;2023-09-18T08:36:05;25.00;99.90
8332;DHT22;4203;48.144;14.118;2023-09-18T08:38:32;25.20;99.90
8332;DHT22;4203;48.144;14.118;2023-09-18T08:40:59;25.40;99.90
8332;DHT22;4203;48.144;14.118;2023-09-18T08:43:27;25.60;99.90
8332;DHT22;4203;48.144;14.118;2023-09-18T08:45:55;25.90;99.90
8332;DHT22;4203;48.144;14.118;2023-09-18T08:48:28;25.90;99.90
8332;DHT22;4203;48.144;14.118;2023-09-18T08:51:02;25.90;99.90
8332;DHT22;4203;48.144;14.118;2023-09-18T08:53:31;25.90;99.90
8332;DHT22;4203;48.144;14.118;2023-09-18T08:55:59;25.80;99.90
8332;DHT22;4203;48.144;14.118;2023-09-18T08:58:28;25.80;99.90
8332;DHT22;4203;48.144;14.118;2023-09-18T09:00:58;25.70;99.90
8332;DHT22;4203;48.144;14.118;2023-09-18T09:03:27;25.60;99.90
8332;DHT22;4203;48.144;14.118;2023-09-18T09:05:54;25.30;99.90
8332;DHT22;4203;48.144;14.118;2023-09-18T09:08:21;25.40;99.90
8332;DHT22;4203;48.144;14.118;2023-09-18T09:10:50;25.60;99.90
8332;DHT22;4203;48.144;14.118;2023-09-18T09:13:17;25.80;99.90
8332;DHT22;4203;48.144;14.118;2023-09-18T09:15:47;26.10;99.90
8332;DHT22;4203;48.144;14.118;2023-09-18T09:18:16;26.50;99.90
8332;DHT22;4203;48.144;14.118;2023-09-18T09:20:53;26.90;99.90
8332;DHT22;4203;48.144;14.118;2023-09-18T09:23:24;27.30;99.90
8332;DHT22;4203;48.144;14.118;2023-09-18T09:25:52;27.60;99.90
8332;DHT22;4203;48.144;14.118;2023-09-18T09:28:29;27.90;99.90
8332;DHT22;4203;48.144;14.118;2023-09-18T09:31:00;28.20;99.90
8332;DHT22;4203;48.144;14.118;2023-09-18T09:33:28;28.40;99.90
8332;DHT22;4203;48.144;14.118;2023-09-18T09:35:57;28.40;99.90
8332;DHT22;4203;48.144;14.118;2023-09-18T09:38:29;28.20;99.90
8332;DHT22;4203;48.144;14.118;2023-09-18T09:40:59;28.40;99.90
8332;DHT22;4203;48.144;14.118;2023-09-18T09:43:27;28.60;99.90
8332;DHT22;4203;48.144;14.118;2023-09-18T09:45:57;28.70;99.90
8332;DHT22;4203;48.144;14.118;2023-09-18T09:48:25;28.60;99.90
8332;DHT22;4203;48.144;14.118;2023-09-18T09:50:57;28.50;99.90
8332;DHT22;4203;48.144;14.118;2023-09-18T09:53:43;28.50;99.90
8332;DHT22;4203;48.144;14.118;2023-09-18T09:56:14;28.60;99.90
8332;DHT22;4203;48.144;14.118;2023-09-18T09:59:00;28.60;99.90
8332;DHT22;4203;48.144;14.118;2023-09-18T10:01:30;28.70;99.90
8332;DHT22;4203;48.144;14.118;2023-09-18T10:03:58;29.00;99.90
8332;DHT22;4203;48.144;14.118;2023-09-18T10:06:27;29.40;99.90
8332;DHT22;4203;48.144;14.118;2023-09-18T10:08:57;29.70;99.90
8332;DHT22;4203;48.144;14.118;2023-09-18T10:11:28;30.00;99.90
8332;DHT22;4203;48.144;14.118;2023-09-18T10:13:59;30.20;99.90
8332;DHT22;4203;48.144;14.118;2023-09-18T10:16:30;30.50;99.90
8332;DHT22;4203;48.144;14.118;2023-09-18T10:19:07;30.50;99.90
8332;DHT22;4203;48.144;14.118;2023-09-18T10:21:41;30.80;99.90
8332;DHT22;4203;48.144;14.118;2023-09-18T10:24:14;31.10;99.90
8332;DHT22;4203;48.144;14.118;2023-09-18T10:26:51;31.30;99.90
8332;DHT22;4203;48.144;14.118;2023-09-18T10:29:22;31.50;99.90
8332;DHT22;4203;48.144;14.118;2023-09-18T10:31:51;31.60;99.90
8332;DHT22;4203;48.144;14.118;2023-09-18T10:34:19;31.70;99.90
8332;DHT22;4203;48.144;14.118;2023-09-18T10:36:47;31.70;99.90
8332;DHT22;4203;48.144;14.118;2023-09-18T10:39:14;31.80;99.90
8332;DHT22;4203;48.144;14.118;2023-09-18T10:41:48;32.10;99.90
8332;DHT22;4203;48.144;14.118;2023-09-18T10:44:16;32.50;99.90
8332;DHT22;4203;48.144;14.118;2023-09-18T10:46:43;32.50;99.90
8332;DHT22;4203;48.144;14.118;2023-09-18T10:49:11;32.50;99.90
8332;DHT22;4203;48.144;14.118;2023-09-18T10:51:38;32.70;99.90
8332;DHT22;4203;48.144;14.118;2023-09-18T10:54:08;32.90;99.90
8332;DHT22;4203;48.144;14.118;2023-09-18T10:56:35;33.20;99.90
8332;DHT22;4203;48.144;14.118;2023-09-18T10:59:07;33.30;99.90
8332;DHT22;4203;48.144;14.118;2023-09-18T11:01:35;33.10;99.90
8332;DHT22;4203;48.144;14.118;2023-09-18T11:04:04;32.80;99.90
8332;DHT22;4203;48.144;14.118;2023-09-18T11:09:43;32.30;99.90
8332;DHT22;4203;48.144;14.118;2023-09-18T11:12:11;32.30;99.90
8332;DHT22;4203;48.144;14.118;2023-09-18T11:14:48;32.60;99.90
8332;DHT22;4203;48.144;14.118;2023-09-18T11:17:34;33.00;99.90
8332;DHT22;4203;48.144;14.118;2023-09-18T11:20:06;33.30;99.90
8332;DHT22;4203;48.144;14.118;2023-09-18T11:22:36;33.60;99.90
8332;DHT22;4203;48.144;14.118;2023-09-18T11:25:28;33.90;99.90
8332;DHT22;4203;48.144;14.118;2023-09-18T11:27:57;34.00;99.90
8332;DHT22;4203;48.144;14.118;2023-09-18T11:30:25;34.10;99.90
8332;DHT22;4203;48.144;14.118;2023-09-18T11:32:53;34.20;99.90
8332;DHT22;4203;48.144;14.118;2023-09-18T11:35:21;34.20;99.90
8332;DHT22;4203;48.144;14.118;2023-09-18T11:38:03;34.30;99.90
8332;DHT22;4203;48.144;14.118;2023-09-18T11:40:32;34.50;99.90
8332;DHT22;4203;48.144;14.118;2023-09-18T11:43:20;34.60;99.90
8332;DHT22;4203;48.144;14.118;2023-09-18T11:45:53;34.70;99.90
8332;DHT22;4203;48.144;14.118;2023-09-18T11:48:21;34.80;99.90
8332;DHT22;4203;48.144;14.118;2023-09-18T11:50:51;34.40;98.50
8332;DHT22;4203;48.144;14.118;2023-09-18T11:53:20;33.70;99.90
8332;DHT22;4203;48.144;14.118;2023-09-18T11:55:47;33.00;99.90
8332;DHT22;4203;48.144;14.118;2023-09-18T11:58:15;32.90;99.90
8332;DHT22;4203;48.144;14.118;2023-09-18T12:00:42;32.90;99.90
8332;DHT22;4203;48.144;14.118;2023-09-18T12:03:18;33.00;99.90
8332;DHT22;4203;48.144;14.118;2023-09-18T12:05:55;33.40;99.90
8332;DHT22;4203;48.144;14.118;2023-09-18T12:08:23;34.10;99.90
8332;DHT22;4203;48.144;14.118;2023-09-18T12:10:53;34.70;99.90
8332;DHT22;4203;48.144;14.118;2023-09-18T12:13:20;35.20;99.90
8332;DHT22;4203;48.144;14.118;2023-09-18T12:15:48;35.50;99.90
8332;DHT22;4203;48.144;14.118;2023-09-18T12:18:17;35.00;98.70
8332;DHT22;4203;48.144;14.118;2023-09-18T12:20:48;34.10;99.10
8332;DHT22;4203;48.144;14.118;2023-09-18T12:23:16;33.30;98.40
8332;DHT22;4203;48.144;14.118;2023-09-18T12:25:46;32.80;99.90
8332;DHT22;4203;48.144;14.118;2023-09-18T12:28:14;32.30;99.90
8332;DHT22;4203;48.144;14.118;2023-09-18T12:30:43;32.10;99.90
8332;DHT22;4203;48.144;14.118;2023-09-18T12:33:13;32.20;99.90
8332;DHT22;4203;48.144;14.118;2023-09-18T12:35:42;32.40;99.90
8332;DHT22;4203;48.144;14.118;2023-09-18T12:38:16;32.60;99.90
8332;DHT22;4203;48.144;14.118;2023-09-18T12:40:45;32.90;99.90
8332;DHT22;4203;48.144;14.118;2023-09-18T12:43:13;33.40;99.90
8332;DHT22;4203;48.144;14.118;2023-09-18T12:45:43;33.80;99.90
8332;DHT22;4203;48.144;14.118;2023-09-18T12:48:12;34.20;99.90
8332;DHT22;4203;48.144;14.118;2023-09-18T12:50:40;34.60;99.90
8332;DHT22;4203;48.144;14.118;2023-09-18T12:53:09;34.60;99.90
8332;DHT22;4203;48.144;14.118;2023-09-18T12:55:37;34.10;99.90
8332;DHT22;4203;48.144;14.118;2023-09-18T12:58:04;33.90;99.90
8332;DHT22;4203;48.144;14.118;2023-09-18T13:00:34;33.90;99.50
8332;DHT22;4203;48.144;14.118;2023-09-18T13:03:01;33.50;99.90
8332;DHT22;4203;48.144;14.118;2023-09-18T13:05:30;33.30;99.90
8332;DHT22;4203;48.144;14.118;2023-09-18T13:08:04;33.10;99.90
8332;DHT22;4203;48.144;14.118;2023-09-18T13:10:42;32.90;99.90
8332;DHT22;4203;48.144;14.118;2023-09-18T13:13:16;33.00;99.90
8332;DHT22;4203;48.144;14.118;2023-09-18T13:15:43;33.00;99.90
8332;DHT22;4203;48.144;14.118;2023-09-18T13:18:12;32.70;99.60
8332;DHT22;4203;48.144;14.118;2023-09-18T13:20:41;32.40;99.90
8332;DHT22;4203;48.144;14.118;2023-09-18T13:23:09;32.50;99.90
8332;DHT22;4203;48.144;14.118;2023-09-18T13:25:38;32.60;99.60
8332;DHT22;4203;48.144;14.118;2023-09-18T13:28:09;32.40;99.50
8332;DHT22;4203;48.144;14.118;2023-09-18T13:30:37;32.00;98.40
8332;DHT22;4203;48.144;14.118;2023-09-18T13:33:06;31.90;99.90
8332;DHT22;4203;48.144;14.118;2023-09-18T13:35:34;31.90;99.90
8332;DHT22;4203;48.144;14.118;2023-09-18T13:38:03;31.90;99.90
8332;DHT22;4203;48.144;14.118;2023-09-18T13:40:32;31.90;99.90
8332;DHT22;4203;48.144;14.118;2023-09-18T13:43:01;31.60;99.90
8332;DHT22;4203;48.144;14.118;2023-09-18T13:45:29;31.00;99.90
8332;DHT22;4203;48.144;14.118;2023-09-18T13:47:56;30.50;99.90
8332;DHT22;4203;48.144;14.118;2023-09-18T13:50:23;30.00;99.90
8332;DHT22;4203;48.144;14.118;2023-09-18T13:52:51;29.80;99.90
8332;DHT22;4203;48.144;14.118;2023-09-18T13:55:18;29.60;99.90
8332;DHT22;4203;48.144;14.118;2023-09-18T13:57:47;29.10;99.90
8332;DHT22;4203;48.144;14.118;2023-09-18T14:00:15;28.80;99.90
8332;DHT22;4203;48.144;14.118;2023-09-18T14:02:42;28.20;99.90
8332;DHT22;4203;48.144;14.118;2023-09-18T14:05:10;27.90;99.90
8332;DHT22;4203;48.144;14.118;2023-09-18T14:07:38;27.70;99.90
8332;DHT22;4203;48.144;14.118;2023-09-18T14:10:06;27.40;99.90
8332;DHT22;4203;48.144;14.118;2023-09-18T14:12:36;27.30;99.90
8332;DHT22;4203;48.144;14.118;2023-09-18T14:15:06;27.10;99.90
8332;DHT22;4203;48.144;14.118;2023-09-18T14:17:33;27.00;99.90
8332;DHT22;4203;48.144;14.118;2023-09-18T14:20:01;26.80;99.90
8332;DHT22;4203;48.144;14.118;2023-09-18T14:22:32;26.60;99.90
8332;DHT22;4203;48.144;14.118;2023-09-18T14:24:59;26.40;99.90
8332;DHT22;4203;48.144;14.118;2023-09-18T14:27:29;26.40;99.90
8332;DHT22;4203;48.144;14.118;2023-09-18T14:29:56;26.30;99.90
8332;DHT22;4203;48.144;14.118;2023-09-18T14:32:25;26.30;99.90
8332;DHT22;4203;48.144;14.118;2023-09-18T14:34:53;26.10;99.90
8332;DHT22;4203;48.144;14.118;2023-09-18T14:37:20;25.90;99.90
8332;DHT22;4203;48.144;14.118;2023-09-18T14:39:47;25.60;99.90
8332;DHT22;4203;48.144;14.118;2023-09-18T14:42:14;25.50;99.90
8332;DHT22;4203;48.144;14.118;2023-09-18T14:44:42;25.50;99.90
8332;DHT22;4203;48.144;14.118;2023-09-18T14:47:10;25.50;99.90
8332;DHT22;4203;48.144;14.118;2023-09-18T14:49:39;25.40;99.90
8332;DHT22;4203;48.144;14.118;2023-09-18T14:52:07;25.30;99.90
8332;DHT22;4203;48.144;14.118;2023-09-18T14:54:34;25.30;99.90
8332;DHT22;4203;48.144;14.118;2023-09-18T14:57:01;25.30;99.90
8332;DHT22;4203;48.144;14.118;2023-09-18T14:59:29;25.10;99.90
8332;DHT22;4203;48.144;14.118;2023-09-18T15:01:56;25.00;99.90
8332;DHT22;4203;48.144;14.118;2023-09-18T15:04:23;24.80;99.90
8332;DHT22;4203;48.144;14.118;2023-09-18T15:06:52;24.70;99.90
8332;DHT22;4203;48.144;14.118;2023-09-18T15:09:19;24.50;99.90
8332;DHT22;4203;48.144;14.118;2023-09-18T15:11:46;24.50;99.90
8332;DHT22;4203;48.144;14.118;2023-09-18T15:14:13;24.40;99.90
8332;DHT22;4203;48.144;14.118;2023-09-18T15:16:41;24.30;99.90
8332;DHT22;4203;48.144;14.118;2023-09-18T15:19:08;24.30;99.90
8332;DHT22;4203;48.144;14.118;2023-09-18T15:21:36;24.30;99.90
8332;DHT22;4203;48.144;14.118;2023-09-18T15:24:07;24.20;99.90
8332;DHT22;4203;48.144;14.118;2023-09-18T15:26:35;24.10;99.90
8332;DHT22;4203;48.144;14.118;2023-09-18T15:29:02;24.10;99.90
8332;DHT22;4203;48.144;14.118;2023-09-18T15:31:29;24.10;99.90
8332;DHT22;4203;48.144;14.118;2023-09-18T15:33:56;24.00;99.90
8332;DHT22;4203;48.144;14.118;2023-09-18T15:36:23;24.00;99.90
8332;DHT22;4203;48.144;14.118;2023-09-18T15:38:50;23.90;99.90
8332;DHT22;4203;48.144;14.118;2023-09-18T15:41:19;24.00;99.90
8332;DHT22;4203;48.144;14.118;2023-09-18T15:43:46;23.90;99.90
8332;DHT22;4203;48.144;14.118;2023-09-18T15:46:15;23.90;99.90
8332;DHT22;4203;48.144;14.118;2023-09-18T15:48:43;23.80;99.90
8332;DHT22;4203;48.144;14.118;2023-09-18T15:51:10;23.70;99.90
8332;DHT22;4203;48.144;14.118;2023-09-18T15:53:37;23.70;99.90
8332;DHT22;4203;48.144;14.118;2023-09-18T15:56:04;23.70;99.90